sensor_id;sensor_type;location;lat;lon;timestamp;P1;durP1;ratioP1;P2;durP2;ratioP2
49730;SDS011;35622;52.008;5.426;2023-04-25T00:01:14;12.05;;;3.00;;
49730;SDS011;35622;52.008;5.426;2023-04-25T00:03:40;10.13;;;2.50;;
49730;SDS011;35622;52.008;5.426;2023-04-25T00:06:06;6.13;;;2.17;;
49730;SDS011;35622;52.008;5.426;2023-04-25T00:08:32;11.07;;;2.47;;
49730;SDS011;35622;52.008;5.426;2023-04-25T00:10:58;6.28;;;2.90;;
49730;SDS011;35622;52.008;5.426;2023-04-25T00:13:24;9.82;;;2.40;;
49730;SDS011;35622;52.008;5.426;2023-04-25T00:15:51;7.78;;;2.50;;
49730;SDS011;35622;52.008;5.426;2023-04-25T00:18:18;11.32;;;2.40;;
49730;SDS011;35622;52.008;5.426;2023-04-25T00:20:44;9.43;;;2.88;;
49730;SDS011;35622;52.008;5.426;2023-04-25T00:23:09;8.07;;;2.53;;
49730;SDS011;35622;52.008;5.426;2023-04-25T00:25:35;10.05;;;3.03;;
49730;SDS011;35622;52.008;5.426;2023-04-25T00:28:01;5.18;;;2.15;;
49730;SDS011;35622;52.008;5.426;2023-04-25T00:30:26;9.65;;;2.72;;
49730;SDS011;35622;52.008;5.426;2023-04-25T00:32:52;7.72;;;2.58;;
49730;SDS011;35622;52.008;5.426;2023-04-25T00:35:18;6.20;;;3.28;;
49730;SDS011;35622;52.008;5.426;2023-04-25T00:37:43;10.70;;;2.88;;
49730;SDS011;35622;52.008;5.426;2023-04-25T00:40:10;10.18;;;2.90;;
49730;SDS011;35622;52.008;5.426;2023-04-25T00:42:35;12.82;;;3.20;;
49730;SDS011;35622;52.008;5.426;2023-04-25T00:45:04;11.52;;;3.10;;
49730;SDS011;35622;52.008;5.426;2023-04-25T00:47:30;17.88;;;3.03;;
49730;SDS011;35622;52.008;5.426;2023-04-25T00:49:57;16.10;;;3.67;;
49730;SDS011;35622;52.008;5.426;2023-04-25T00:52:23;13.60;;;3.22;;
49730;SDS011;35622;52.008;5.426;2023-04-25T00:54:48;9.55;;;2.72;;
49730;SDS011;35622;52.008;5.426;2023-04-25T00:57:14;9.95;;;2.92;;
49730;SDS011;35622;52.008;5.426;2023-04-25T00:59:40;19.55;;;3.53;;
49730;SDS011;35622;52.008;5.426;2023-04-25T01:02:10;12.25;;;2.83;;
49730;SDS011;35622;52.008;5.426;2023-04-25T01:04:35;11.20;;;2.50;;
49730;SDS011;35622;52.008;5.426;2023-04-25T01:07:01;12.18;;;2.90;;
49730;SDS011;35622;52.008;5.426;2023-04-25T01:09:27;11.77;;;2.90;;
49730;SDS011;35622;52.008;5.426;2023-04-25T01:11:56;8.30;;;2.60;;
49730;SDS011;35622;52.008;5.426;2023-04-25T01:14:22;9.15;;;2.97;;
49730;SDS011;35622;52.008;5.426;2023-04-25T01:16:48;11.57;;;2.72;;
49730;SDS011;35622;52.008;5.426;2023-04-25T01:19:14;15.32;;;3.08;;
49730;SDS011;35622;52.008;5.426;2023-04-25T01:21:42;14.10;;;2.72;;
49730;SDS011;35622;52.008;5.426;2023-04-25T01:24:07;8.70;;;2.47;;
49730;SDS011;35622;52.008;5.426;2023-04-25T01:26:33;13.30;;;2.50;;
49730;SDS011;35622;52.008;5.426;2023-04-25T01:28:59;8.50;;;3.28;;
49730;SDS011;35622;52.008;5.426;2023-04-25T01:31:26;7.55;;;2.45;;
49730;SDS011;35622;52.008;5.426;2023-04-25T01:33:52;7.97;;;2.58;;
49730;SDS011;35622;52.008;5.426;2023-04-25T01:36:18;6.95;;;2.65;;
49730;SDS011;35622;52.008;5.426;2023-04-25T01:38:44;14.50;;;2.60;;
49730;SDS011;35622;52.008;5.426;2023-04-25T01:41:12;8.30;;;2.30;;
49730;SDS011;35622;52.008;5.426;2023-04-25T01:43:38;10.23;;;3.33;;
49730;SDS011;35622;52.008;5.426;2023-04-25T01:46:04;12.48;;;2.42;;
49730;SDS011;35622;52.008;5.426;2023-04-25T01:48:30;6.95;;;2.38;;
49730;SDS011;35622;52.008;5.426;2023-04-25T01:50:55;14.73;;;2.80;;
49730;SDS011;35622;52.008;5.426;2023-04-25T01:53:21;7.43;;;2.53;;
49730;SDS011;35622;52.008;5.426;2023-04-25T01:55:47;7.15;;;2.55;;
49730;SDS011;35622;52.008;5.426;2023-04-25T01:58:13;8.52;;;2.55;;
49730;SDS011;35622;52.008;5.426;2023-04-25T02:00:38;10.40;;;2.73;;
49730;SDS011;35622;52.008;5.426;2023-04-25T02:03:05;12.57;;;2.87;;
49730;SDS011;35622;52.008;5.426;2023-04-25T02:05:35;9.90;;;2.90;;
49730;SDS011;35622;52.008;5.426;2023-04-25T02:08:01;11.23;;;2.70;;
49730;SDS011;35622;52.008;5.426;2023-04-25T02:10:28;9.83;;;3.17;;
49730;SDS011;35622;52.008;5.426;2023-04-25T02:12:53;12.13;;;3.20;;
49730;SDS011;35622;52.008;5.426;2023-04-25T02:15:19;10.03;;;2.70;;
49730;SDS011;35622;52.008;5.426;2023-04-25T02:17:44;7.30;;;2.33;;
49730;SDS011;35622;52.008;5.426;2023-04-25T02:20:11;4.93;;;2.47;;
49730;SDS011;35622;52.008;5.426;2023-04-25T02:22:37;9.20;;;2.30;;
49730;SDS011;35622;52.008;5.426;2023-04-25T02:25:03;7.87;;;2.63;;
49730;SDS011;35622;52.008;5.426;2023-04-25T02:27:29;4.37;;;2.23;;
49730;SDS011;35622;52.008;5.426;2023-04-25T02:29:55;9.80;;;2.40;;
49730;SDS011;35622;52.008;5.426;2023-04-25T02:32:21;8.97;;;2.70;;
49730;SDS011;35622;52.008;5.426;2023-04-25T02:34:46;8.33;;;2.10;;
49730;SDS011;35622;52.008;5.426;2023-04-25T02:37:13;9.30;;;2.73;;
49730;SDS011;35622;52.008;5.426;2023-04-25T02:39:39;13.87;;;3.20;;
49730;SDS011;35622;52.008;5.426;2023-04-25T02:42:04;6.00;;;2.17;;
49730;SDS011;35622;52.008;5.426;2023-04-25T02:44:30;7.30;;;2.30;;
49730;SDS011;35622;52.008;5.426;2023-04-25T02:46:56;6.67;;;3.07;;
49730;SDS011;35622;52.008;5.426;2023-04-25T02:49:21;8.30;;;2.67;;
49730;SDS011;35622;52.008;5.426;2023-04-25T02:51:47;9.93;;;2.57;;
49730;SDS011;35622;52.008;5.426;2023-04-25T02:54:12;6.07;;;2.53;;
49730;SDS011;35622;52.008;5.426;2023-04-25T02:56:38;9.53;;;3.03;;
49730;SDS011;35622;52.008;5.426;2023-04-25T02:59:03;8.57;;;2.77;;
49730;SDS011;35622;52.008;5.426;2023-04-25T03:01:29;9.43;;;2.37;;
49730;SDS011;35622;52.008;5.426;2023-04-25T03:03:54;10.73;;;2.73;;
49730;SDS011;35622;52.008;5.426;2023-04-25T03:06:20;7.83;;;2.60;;
49730;SDS011;35622;52.008;5.426;2023-04-25T03:08:46;11.37;;;2.63;;
49730;SDS011;35622;52.008;5.426;2023-04-25T03:11:11;12.33;;;3.23;;
49730;SDS011;35622;52.008;5.426;2023-04-25T03:13:37;7.60;;;2.67;;
49730;SDS011;35622;52.008;5.426;2023-04-25T03:16:02;7.97;;;2.67;;
49730;SDS011;35622;52.008;5.426;2023-04-25T03:18:28;7.97;;;3.00;;
49730;SDS011;35622;52.008;5.426;2023-04-25T03:20:53;5.57;;;2.40;;
49730;SDS011;35622;52.008;5.426;2023-04-25T03:23:19;14.30;;;3.00;;
49730;SDS011;35622;52.008;5.426;2023-04-25T03:25:44;7.27;;;2.43;;
49730;SDS011;35622;52.008;5.426;2023-04-25T03:28:10;12.13;;;3.60;;
49730;SDS011;35622;52.008;5.426;2023-04-25T03:30:36;11.73;;;3.10;;
49730;SDS011;35622;52.008;5.426;2023-04-25T03:33:01;9.00;;;2.80;;
49730;SDS011;35622;52.008;5.426;2023-04-25T03:35:27;7.33;;;2.50;;
49730;SDS011;35622;52.008;5.426;2023-04-25T03:37:52;8.03;;;2.83;;
49730;SDS011;35622;52.008;5.426;2023-04-25T03:40:18;10.57;;;3.00;;
49730;SDS011;35622;52.008;5.426;2023-04-25T03:42:43;9.10;;;2.83;;
49730;SDS011;35622;52.008;5.426;2023-04-25T03:45:09;8.37;;;3.23;;
49730;SDS011;35622;52.008;5.426;2023-04-25T03:47:34;10.33;;;3.13;;
49730;SDS011;35622;52.008;5.426;2023-04-25T03:50:00;10.13;;;3.10;;
49730;SDS011;35622;52.008;5.426;2023-04-25T03:52:27;9.20;;;2.93;;
49730;SDS011;35622;52.008;5.426;2023-04-25T03:54:52;8.43;;;3.80;;
49730;SDS011;35622;52.008;5.426;2023-04-25T03:57:18;12.87;;;3.40;;
49730;SDS011;35622;52.008;5.426;2023-04-25T03:59:43;7.83;;;3.03;;
49730;SDS011;35622;52.008;5.426;2023-04-25T04:02:10;7.37;;;3.37;;
49730;SDS011;35622;52.008;5.426;2023-04-25T04:04:36;13.43;;;4.27;;
49730;SDS011;35622;52.008;5.426;2023-04-25T04:07:02;6.93;;;3.40;;
49730;SDS011;35622;52.008;5.426;2023-04-25T04:09:27;12.57;;;3.33;;
49730;SDS011;35622;52.008;5.426;2023-04-25T04:11:53;8.37;;;3.70;;
49730;SDS011;35622;52.008;5.426;2023-04-25T04:14:19;9.27;;;3.50;;
49730;SDS011;35622;52.008;5.426;2023-04-25T04:16:44;11.40;;;3.70;;
49730;SDS011;35622;52.008;5.426;2023-04-25T04:19:10;9.10;;;3.73;;
49730;SDS011;35622;52.008;5.426;2023-04-25T04:21:35;10.55;;;3.58;;
49730;SDS011;35622;52.008;5.426;2023-04-25T04:24:01;9.50;;;3.30;;
49730;SDS011;35622;52.008;5.426;2023-04-25T04:26:27;10.30;;;3.30;;
49730;SDS011;35622;52.008;5.426;2023-04-25T04:28:52;8.33;;;3.83;;
49730;SDS011;35622;52.008;5.426;2023-04-25T04:31:22;9.10;;;3.23;;
49730;SDS011;35622;52.008;5.426;2023-04-25T04:33:49;11.83;;;3.40;;
49730;SDS011;35622;52.008;5.426;2023-04-25T04:36:14;9.77;;;3.30;;
49730;SDS011;35622;52.008;5.426;2023-04-25T04:38:40;13.20;;;3.30;;
49730;SDS011;35622;52.008;5.426;2023-04-25T04:41:07;13.13;;;3.70;;
49730;SDS011;35622;52.008;5.426;2023-04-25T04:43:33;10.47;;;3.37;;
49730;SDS011;35622;52.008;5.426;2023-04-25T04:46:00;9.90;;;2.90;;
49730;SDS011;35622;52.008;5.426;2023-04-25T04:48:31;8.10;;;3.20;;
49730;SDS011;35622;52.008;5.426;2023-04-25T04:50:59;12.33;;;3.37;;
49730;SDS011;35622;52.008;5.426;2023-04-25T04:53:25;13.95;;;3.30;;
49730;SDS011;35622;52.008;5.426;2023-04-25T04:55:50;6.13;;;2.60;;
49730;SDS011;35622;52.008;5.426;2023-04-25T04:58:16;8.53;;;2.77;;
49730;SDS011;35622;52.008;5.426;2023-04-25T05:00:41;10.25;;;2.92;;
49730;SDS011;35622;52.008;5.426;2023-04-25T05:03:07;6.03;;;2.60;;
49730;SDS011;35622;52.008;5.426;2023-04-25T05:05:33;5.28;;;2.67;;
49730;SDS011;35622;52.008;5.426;2023-04-25T05:07:58;13.50;;;3.55;;
49730;SDS011;35622;52.008;5.426;2023-04-25T05:10:25;8.80;;;3.00;;
49730;SDS011;35622;52.008;5.426;2023-04-25T05:12:50;6.85;;;2.38;;
49730;SDS011;35622;52.008;5.426;2023-04-25T05:15:16;5.97;;;2.58;;
49730;SDS011;35622;52.008;5.426;2023-04-25T05:17:41;7.65;;;2.05;;
49730;SDS011;35622;52.008;5.426;2023-04-25T05:20:07;8.00;;;2.40;;
49730;SDS011;35622;52.008;5.426;2023-04-25T05:22:36;6.35;;;2.20;;
49730;SDS011;35622;52.008;5.426;2023-04-25T05:25:02;7.25;;;2.20;;
49730;SDS011;35622;52.008;5.426;2023-04-25T05:27:28;8.63;;;2.13;;
49730;SDS011;35622;52.008;5.426;2023-04-25T05:29:54;5.95;;;2.08;;
49730;SDS011;35622;52.008;5.426;2023-04-25T05:32:19;5.97;;;1.90;;
49730;SDS011;35622;52.008;5.426;2023-04-25T05:34:45;8.45;;;2.35;;
49730;SDS011;35622;52.008;5.426;2023-04-25T05:37:10;4.25;;;1.77;;
49730;SDS011;35622;52.008;5.426;2023-04-25T05:39:36;7.93;;;1.92;;
49730;SDS011;35622;52.008;5.426;2023-04-25T05:42:02;8.65;;;1.95;;
49730;SDS011;35622;52.008;5.426;2023-04-25T05:44:30;6.57;;;1.88;;
49730;SDS011;35622;52.008;5.426;2023-04-25T05:46:56;10.10;;;2.13;;
49730;SDS011;35622;52.008;5.426;2023-04-25T05:49:21;6.80;;;1.70;;
49730;SDS011;35622;52.008;5.426;2023-04-25T05:51:47;6.53;;;1.33;;
49730;SDS011;35622;52.008;5.426;2023-04-25T05:54:12;8.40;;;1.40;;
49730;SDS011;35622;52.008;5.426;2023-04-25T05:56:38;4.55;;;1.60;;
49730;SDS011;35622;52.008;5.426;2023-04-25T05:59:03;4.97;;;1.63;;
49730;SDS011;35622;52.008;5.426;2023-04-25T06:01:29;5.22;;;1.23;;
49730;SDS011;35622;52.008;5.426;2023-04-25T06:03:56;4.60;;;1.30;;
49730;SDS011;35622;52.008;5.426;2023-04-25T06:06:21;6.50;;;1.65;;
49730;SDS011;35622;52.008;5.426;2023-04-25T06:08:47;5.13;;;1.52;;
49730;SDS011;35622;52.008;5.426;2023-04-25T06:11:12;6.32;;;1.33;;
49730;SDS011;35622;52.008;5.426;2023-04-25T06:13:38;5.00;;;1.42;;
49730;SDS011;35622;52.008;5.426;2023-04-25T06:16:03;9.10;;;1.98;;
49730;SDS011;35622;52.008;5.426;2023-04-25T06:18:29;4.72;;;1.10;;
49730;SDS011;35622;52.008;5.426;2023-04-25T06:20:55;11.05;;;1.83;;
49730;SDS011;35622;52.008;5.426;2023-04-25T06:23:21;5.25;;;1.23;;
49730;SDS011;35622;52.008;5.426;2023-04-25T06:25:46;6.78;;;1.30;;
49730;SDS011;35622;52.008;5.426;2023-04-25T06:28:12;4.25;;;1.23;;
49730;SDS011;35622;52.008;5.426;2023-04-25T06:30:37;6.75;;;1.08;;
49730;SDS011;35622;52.008;5.426;2023-04-25T06:33:03;6.38;;;1.30;;
49730;SDS011;35622;52.008;5.426;2023-04-25T06:35:28;7.05;;;1.48;;
49730;SDS011;35622;52.008;5.426;2023-04-25T06:37:54;5.50;;;1.05;;
49730;SDS011;35622;52.008;5.426;2023-04-25T06:40:20;7.32;;;1.10;;
49730;SDS011;35622;52.008;5.426;2023-04-25T06:42:45;3.25;;;1.02;;
49730;SDS011;35622;52.008;5.426;2023-04-25T06:45:11;3.42;;;1.00;;
49730;SDS011;35622;52.008;5.426;2023-04-25T06:47:37;8.52;;;1.40;;
49730;SDS011;35622;52.008;5.426;2023-04-25T06:50:02;4.43;;;1.00;;
49730;SDS011;35622;52.008;5.426;2023-04-25T06:52:28;7.32;;;1.05;;
49730;SDS011;35622;52.008;5.426;2023-04-25T06:54:54;4.90;;;1.00;;
49730;SDS011;35622;52.008;5.426;2023-04-25T06:57:19;6.00;;;1.38;;
49730;SDS011;35622;52.008;5.426;2023-04-25T06:59:45;4.88;;;1.30;;
49730;SDS011;35622;52.008;5.426;2023-04-25T07:02:11;4.70;;;1.10;;
49730;SDS011;35622;52.008;5.426;2023-04-25T07:04:36;3.78;;;1.10;;
49730;SDS011;35622;52.008;5.426;2023-04-25T07:07:02;4.95;;;1.00;;
49730;SDS011;35622;52.008;5.426;2023-04-25T07:09:28;6.53;;;1.58;;
49730;SDS011;35622;52.008;5.426;2023-04-25T07:11:54;2.78;;;1.02;;
49730;SDS011;35622;52.008;5.426;2023-04-25T07:14:21;5.97;;;1.08;;
49730;SDS011;35622;52.008;5.426;2023-04-25T07:16:47;4.13;;;1.10;;
49730;SDS011;35622;52.008;5.426;2023-04-25T07:19:12;4.75;;;1.10;;
49730;SDS011;35622;52.008;5.426;2023-04-25T07:21:38;3.97;;;0.88;;
49730;SDS011;35622;52.008;5.426;2023-04-25T07:24:03;3.05;;;1.00;;
49730;SDS011;35622;52.008;5.426;2023-04-25T07:26:29;6.20;;;1.30;;
49730;SDS011;35622;52.008;5.426;2023-04-25T07:28:55;5.75;;;0.82;;
49730;SDS011;35622;52.008;5.426;2023-04-25T07:31:21;4.20;;;0.90;;
49730;SDS011;35622;52.008;5.426;2023-04-25T07:33:47;4.30;;;1.20;;
49730;SDS011;35622;52.008;5.426;2023-04-25T07:36:13;3.60;;;0.90;;
49730;SDS011;35622;52.008;5.426;2023-04-25T07:38:40;3.90;;;0.90;;
49730;SDS011;35622;52.008;5.426;2023-04-25T07:41:05;3.40;;;1.08;;
49730;SDS011;35622;52.008;5.426;2023-04-25T07:43:31;4.53;;;1.10;;
49730;SDS011;35622;52.008;5.426;2023-04-25T07:45:57;5.07;;;0.95;;
49730;SDS011;35622;52.008;5.426;2023-04-25T07:48:22;3.13;;;0.90;;
49730;SDS011;35622;52.008;5.426;2023-04-25T07:50:48;4.72;;;0.93;;
49730;SDS011;35622;52.008;5.426;2023-04-25T07:53:14;3.13;;;0.75;;
49730;SDS011;35622;52.008;5.426;2023-04-25T07:55:39;3.95;;;1.00;;
49730;SDS011;35622;52.008;5.426;2023-04-25T07:58:05;3.85;;;1.08;;
49730;SDS011;35622;52.008;5.426;2023-04-25T08:00:35;4.65;;;1.15;;
49730;SDS011;35622;52.008;5.426;2023-04-25T08:03:01;5.10;;;1.08;;
49730;SDS011;35622;52.008;5.426;2023-04-25T08:05:27;2.72;;;0.80;;
49730;SDS011;35622;52.008;5.426;2023-04-25T08:07:53;2.83;;;0.70;;
49730;SDS011;35622;52.008;5.426;2023-04-25T08:10:18;5.10;;;0.82;;
49730;SDS011;35622;52.008;5.426;2023-04-25T08:12:44;7.68;;;1.00;;
49730;SDS011;35622;52.008;5.426;2023-04-25T08:15:10;3.35;;;1.10;;
49730;SDS011;35622;52.008;5.426;2023-04-25T08:17:35;3.58;;;0.88;;
49730;SDS011;35622;52.008;5.426;2023-04-25T08:20:01;3.80;;;0.90;;
49730;SDS011;35622;52.008;5.426;2023-04-25T08:22:30;3.40;;;1.00;;
49730;SDS011;35622;52.008;5.426;2023-04-25T08:24:56;4.70;;;1.10;;
49730;SDS011;35622;52.008;5.426;2023-04-25T08:27:22;5.00;;;1.02;;
49730;SDS011;35622;52.008;5.426;2023-04-25T08:29:48;4.05;;;0.90;;
49730;SDS011;35622;52.008;5.426;2023-04-25T08:32:14;5.00;;;0.88;;
49730;SDS011;35622;52.008;5.426;2023-04-25T08:34:40;5.10;;;0.93;;
49730;SDS011;35622;52.008;5.426;2023-04-25T08:37:07;3.70;;;1.00;;
49730;SDS011;35622;52.008;5.426;2023-04-25T08:39:34;3.65;;;1.02;;
49730;SDS011;35622;52.008;5.426;2023-04-25T08:42:00;4.00;;;1.10;;
49730;SDS011;35622;52.008;5.426;2023-04-25T08:44:31;6.60;;;1.30;;
49730;SDS011;35622;52.008;5.426;2023-04-25T08:46:58;6.03;;;0.98;;
49730;SDS011;35622;52.008;5.426;2023-04-25T08:49:24;4.95;;;1.10;;
49730;SDS011;35622;52.008;5.426;2023-04-25T08:51:50;3.85;;;0.88;;
49730;SDS011;35622;52.008;5.426;2023-04-25T08:54:18;3.25;;;0.68;;
49730;SDS011;35622;52.008;5.426;2023-04-25T08:56:48;4.35;;;0.90;;
49730;SDS011;35622;52.008;5.426;2023-04-25T08:59:14;2.50;;;0.70;;
49730;SDS011;35622;52.008;5.426;2023-04-25T09:01:40;3.05;;;0.73;;
49730;SDS011;35622;52.008;5.426;2023-04-25T09:04:06;2.55;;;0.73;;
49730;SDS011;35622;52.008;5.426;2023-04-25T09:06:31;3.45;;;0.80;;
49730;SDS011;35622;52.008;5.426;2023-04-25T09:09:06;3.53;;;0.80;;
49730;SDS011;35622;52.008;5.426;2023-04-25T09:11:32;2.42;;;0.63;;
49730;SDS011;35622;52.008;5.426;2023-04-25T09:14:15;2.30;;;0.65;;
49730;SDS011;35622;52.008;5.426;2023-04-25T09:21:54;1.80;;;0.70;;
49730;SDS011;35622;52.008;5.426;2023-04-25T09:24:31;2.88;;;0.80;;
49730;SDS011;35622;52.008;5.426;2023-04-25T09:27:02;1.38;;;0.50;;
49730;SDS011;35622;52.008;5.426;2023-04-25T09:29:29;4.07;;;0.73;;
49730;SDS011;35622;52.008;5.426;2023-04-25T09:32:13;4.15;;;0.50;;
49730;SDS011;35622;52.008;5.426;2023-04-25T09:34:47;2.35;;;0.68;;
49730;SDS011;35622;52.008;5.426;2023-04-25T09:37:20;3.67;;;0.95;;
49730;SDS011;35622;52.008;5.426;2023-04-25T09:39:48;5.40;;;0.82;;
49730;SDS011;35622;52.008;5.426;2023-04-25T09:42:16;2.67;;;0.90;;
49730;SDS011;35622;52.008;5.426;2023-04-25T09:44:46;2.90;;;0.90;;
49730;SDS011;35622;52.008;5.426;2023-04-25T09:47:12;5.65;;;0.82;;
49730;SDS011;35622;52.008;5.426;2023-04-25T09:49:42;2.28;;;0.70;;
49730;SDS011;35622;52.008;5.426;2023-04-25T09:52:09;5.15;;;0.60;;
49730;SDS011;35622;52.008;5.426;2023-04-25T09:54:39;2.97;;;0.60;;
49730;SDS011;35622;52.008;5.426;2023-04-25T09:57:10;3.50;;;0.80;;
49730;SDS011;35622;52.008;5.426;2023-04-25T09:59:47;1.48;;;0.60;;
49730;SDS011;35622;52.008;5.426;2023-04-25T10:02:21;3.80;;;0.75;;
49730;SDS011;35622;52.008;5.426;2023-04-25T10:04:50;3.97;;;0.68;;
49730;SDS011;35622;52.008;5.426;2023-04-25T10:07:20;4.15;;;0.85;;
49730;SDS011;35622;52.008;5.426;2023-04-25T10:09:50;3.08;;;1.25;;
49730;SDS011;35622;52.008;5.426;2023-04-25T10:12:20;4.82;;;0.90;;
49730;SDS011;35622;52.008;5.426;2023-04-25T10:14:47;5.05;;;0.90;;
49730;SDS011;35622;52.008;5.426;2023-04-25T10:17:13;3.75;;;0.80;;
49730;SDS011;35622;52.008;5.426;2023-04-25T10:19:39;2.35;;;0.75;;
49730;SDS011;35622;52.008;5.426;2023-04-25T10:22:11;3.97;;;0.80;;
49730;SDS011;35622;52.008;5.426;2023-04-25T10:24:56;2.83;;;0.55;;
49730;SDS011;35622;52.008;5.426;2023-04-25T10:27:22;2.70;;;0.60;;
49730;SDS011;35622;52.008;5.426;2023-04-25T10:30:01;2.40;;;0.70;;
49730;SDS011;35622;52.008;5.426;2023-04-25T10:32:36;2.50;;;0.95;;
49730;SDS011;35622;52.008;5.426;2023-04-25T10:35:15;3.95;;;0.73;;
49730;SDS011;35622;52.008;5.426;2023-04-25T10:37:57;2.45;;;0.65;;
49730;SDS011;35622;52.008;5.426;2023-04-25T10:40:24;3.85;;;0.90;;
49730;SDS011;35622;52.008;5.426;2023-04-25T10:42:51;3.17;;;1.00;;
49730;SDS011;35622;52.008;5.426;2023-04-25T10:45:19;3.42;;;0.90;;
49730;SDS011;35622;52.008;5.426;2023-04-25T10:47:45;2.78;;;0.80;;
49730;SDS011;35622;52.008;5.426;2023-04-25T10:50:11;4.35;;;0.93;;
49730;SDS011;35622;52.008;5.426;2023-04-25T10:52:39;3.60;;;0.80;;
49730;SDS011;35622;52.008;5.426;2023-04-25T10:55:05;4.05;;;0.90;;
49730;SDS011;35622;52.008;5.426;2023-04-25T10:57:41;4.90;;;0.90;;
49730;SDS011;35622;52.008;5.426;2023-04-25T11:00:16;2.45;;;0.63;;
49730;SDS011;35622;52.008;5.426;2023-04-25T11:02:47;2.53;;;0.80;;
49730;SDS011;35622;52.008;5.426;2023-04-25T11:05:25;3.30;;;0.82;;
49730;SDS011;35622;52.008;5.426;2023-04-25T11:07:56;4.22;;;0.90;;
49730;SDS011;35622;52.008;5.426;2023-04-25T11:10:26;6.18;;;1.02;;
49730;SDS011;35622;52.008;5.426;2023-04-25T11:12:53;3.80;;;0.70;;
49730;SDS011;35622;52.008;5.426;2023-04-25T11:15:19;2.33;;;0.70;;
49730;SDS011;35622;52.008;5.426;2023-04-25T11:17:44;2.03;;;0.90;;
49730;SDS011;35622;52.008;5.426;2023-04-25T11:20:11;2.50;;;0.60;;
49730;SDS011;35622;52.008;5.426;2023-04-25T11:22:38;4.03;;;1.00;;
49730;SDS011;35622;52.008;5.426;2023-04-25T11:25:07;2.20;;;0.90;;
49730;SDS011;35622;52.008;5.426;2023-04-25T11:27:34;3.50;;;0.98;;
49730;SDS011;35622;52.008;5.426;2023-04-25T11:30:19;2.72;;;0.70;;
49730;SDS011;35622;52.008;5.426;2023-04-25T11:32:45;2.65;;;0.63;;
49730;SDS011;35622;52.008;5.426;2023-04-25T11:35:12;2.25;;;0.63;;
49730;SDS011;35622;52.008;5.426;2023-04-25T11:37:41;3.13;;;0.90;;
49730;SDS011;35622;52.008;5.426;2023-04-25T11:40:08;3.97;;;0.80;;
49730;SDS011;35622;52.008;5.426;2023-04-25T11:42:37;4.78;;;1.02;;
49730;SDS011;35622;52.008;5.426;2023-04-25T11:45:04;5.00;;;1.10;;
49730;SDS011;35622;52.008;5.426;2023-04-25T11:47:31;3.60;;;0.93;;
49730;SDS011;35622;52.008;5.426;2023-04-25T11:49:58;2.95;;;0.80;;
49730;SDS011;35622;52.008;5.426;2023-04-25T11:52:24;5.50;;;0.70;;
49730;SDS011;35622;52.008;5.426;2023-04-25T11:55:00;4.20;;;0.70;;
49730;SDS011;35622;52.008;5.426;2023-04-25T11:57:25;2.35;;;0.80;;
49730;SDS011;35622;52.008;5.426;2023-04-25T11:59:51;2.83;;;0.82;;
49730;SDS011;35622;52.008;5.426;2023-04-25T12:02:26;3.90;;;0.85;;
49730;SDS011;35622;52.008;5.426;2023-04-25T12:04:52;5.10;;;1.15;;
49730;SDS011;35622;52.008;5.426;2023-04-25T12:07:18;3.83;;;0.90;;
49730;SDS011;35622;52.008;5.426;2023-04-25T12:09:51;2.88;;;0.60;;
49730;SDS011;35622;52.008;5.426;2023-04-25T12:12:17;1.50;;;0.70;;
49730;SDS011;35622;52.008;5.426;2023-04-25T12:14:45;2.33;;;0.50;;
49730;SDS011;35622;52.008;5.426;2023-04-25T12:17:16;3.00;;;0.70;;
49730;SDS011;35622;52.008;5.426;2023-04-25T12:19:46;2.97;;;0.70;;
49730;SDS011;35622;52.008;5.426;2023-04-25T12:22:23;4.97;;;0.80;;
49730;SDS011;35622;52.008;5.426;2023-04-25T12:24:49;2.47;;;0.50;;
49730;SDS011;35622;52.008;5.426;2023-04-25T12:27:15;3.03;;;0.70;;
49730;SDS011;35622;52.008;5.426;2023-04-25T12:29:49;3.20;;;0.70;;
49730;SDS011;35622;52.008;5.426;2023-04-25T12:32:19;4.30;;;0.70;;
49730;SDS011;35622;52.008;5.426;2023-04-25T12:34:45;3.15;;;0.75;;
49730;SDS011;35622;52.008;5.426;2023-04-25T12:37:11;4.13;;;0.88;;
49730;SDS011;35622;52.008;5.426;2023-04-25T12:39:36;2.30;;;0.70;;
49730;SDS011;35622;52.008;5.426;2023-04-25T12:42:02;2.47;;;0.70;;
49730;SDS011;35622;52.008;5.426;2023-04-25T12:44:28;3.28;;;0.70;;
49730;SDS011;35622;52.008;5.426;2023-04-25T12:46:54;4.82;;;0.60;;
49730;SDS011;35622;52.008;5.426;2023-04-25T12:49:20;1.73;;;0.50;;
49730;SDS011;35622;52.008;5.426;2023-04-25T12:51:45;2.25;;;0.55;;
49730;SDS011;35622;52.008;5.426;2023-04-25T12:54:11;4.53;;;0.60;;
49730;SDS011;35622;52.008;5.426;2023-04-25T12:56:37;2.10;;;0.70;;
49730;SDS011;35622;52.008;5.426;2023-04-25T12:59:03;2.58;;;0.60;;
49730;SDS011;35622;52.008;5.426;2023-04-25T13:01:29;5.50;;;0.77;;
49730;SDS011;35622;52.008;5.426;2023-04-25T13:03:54;2.35;;;0.70;;
49730;SDS011;35622;52.008;5.426;2023-04-25T13:06:20;3.85;;;0.70;;
49730;SDS011;35622;52.008;5.426;2023-04-25T13:08:47;3.30;;;0.68;;
49730;SDS011;35622;52.008;5.426;2023-04-25T13:11:13;2.60;;;0.60;;
49730;SDS011;35622;52.008;5.426;2023-04-25T13:13:40;2.38;;;0.70;;
49730;SDS011;35622;52.008;5.426;2023-04-25T13:16:06;1.95;;;0.60;;
49730;SDS011;35622;52.008;5.426;2023-04-25T13:18:32;1.20;;;0.50;;
49730;SDS011;35622;52.008;5.426;2023-04-25T13:21:11;4.07;;;0.77;;
49730;SDS011;35622;52.008;5.426;2023-04-25T13:23:37;3.05;;;1.00;;
49730;SDS011;35622;52.008;5.426;2023-04-25T13:26:03;1.17;;;0.60;;
49730;SDS011;35622;52.008;5.426;2023-04-25T13:28:29;2.85;;;0.70;;
49730;SDS011;35622;52.008;5.426;2023-04-25T13:30:54;4.18;;;0.82;;
49730;SDS011;35622;52.008;5.426;2023-04-25T13:33:20;3.15;;;0.90;;
49730;SDS011;35622;52.008;5.426;2023-04-25T13:35:47;3.13;;;0.80;;
49730;SDS011;35622;52.008;5.426;2023-04-25T13:38:19;3.75;;;1.08;;
49730;SDS011;35622;52.008;5.426;2023-04-25T13:40:49;1.98;;;0.80;;
49730;SDS011;35622;52.008;5.426;2023-04-25T13:43:17;2.92;;;0.93;;
49730;SDS011;35622;52.008;5.426;2023-04-25T13:45:43;3.45;;;0.80;;
49730;SDS011;35622;52.008;5.426;2023-04-25T13:48:09;3.72;;;0.80;;
49730;SDS011;35622;52.008;5.426;2023-04-25T13:50:34;2.80;;;0.80;;
49730;SDS011;35622;52.008;5.426;2023-04-25T13:53:00;3.97;;;0.80;;
49730;SDS011;35622;52.008;5.426;2023-04-25T13:55:26;2.33;;;0.63;;
49730;SDS011;35622;52.008;5.426;2023-04-25T13:57:51;3.40;;;0.70;;
49730;SDS011;35622;52.008;5.426;2023-04-25T14:00:17;3.22;;;0.90;;
49730;SDS011;35622;52.008;5.426;2023-04-25T14:02:43;2.50;;;0.60;;
49730;SDS011;35622;52.008;5.426;2023-04-25T14:05:08;2.85;;;0.80;;
49730;SDS011;35622;52.008;5.426;2023-04-25T14:07:34;2.60;;;0.60;;
49730;SDS011;35622;52.008;5.426;2023-04-25T14:10:00;2.05;;;0.70;;
49730;SDS011;35622;52.008;5.426;2023-04-25T14:12:26;2.28;;;0.77;;
49730;SDS011;35622;52.008;5.426;2023-04-25T14:14:52;3.03;;;0.82;;
49730;SDS011;35622;52.008;5.426;2023-04-25T14:17:20;3.35;;;0.80;;
49730;SDS011;35622;52.008;5.426;2023-04-25T14:19:46;3.17;;;0.75;;
49730;SDS011;35622;52.008;5.426;2023-04-25T14:22:13;3.38;;;0.75;;
49730;SDS011;35622;52.008;5.426;2023-04-25T14:24:39;2.75;;;0.93;;
49730;SDS011;35622;52.008;5.426;2023-04-25T14:27:05;4.93;;;1.00;;
49730;SDS011;35622;52.008;5.426;2023-04-25T14:29:31;2.25;;;1.00;;
49730;SDS011;35622;52.008;5.426;2023-04-25T14:31:56;2.90;;;0.70;;
49730;SDS011;35622;52.008;5.426;2023-04-25T14:34:23;3.15;;;0.80;;
49730;SDS011;35622;52.008;5.426;2023-04-25T14:36:49;5.38;;;1.10;;
49730;SDS011;35622;52.008;5.426;2023-04-25T14:39:15;2.55;;;0.80;;
49730;SDS011;35622;52.008;5.426;2023-04-25T14:41:41;5.90;;;1.10;;
49730;SDS011;35622;52.008;5.426;2023-04-25T14:44:07;3.05;;;1.30;;
49730;SDS011;35622;52.008;5.426;2023-04-25T14:46:33;6.93;;;2.22;;
49730;SDS011;35622;52.008;5.426;2023-04-25T14:48:58;7.28;;;2.40;;